sensor_id;sensor_type;location;lat;lon;timestamp;temperature;humidity
46416;DHT22;32620;51.704;7.822;2024-03-23T00:55:42;6.80;99.90
46416;DHT22;32620;51.704;7.822;2024-03-23T00:58:08;6.80;99.90
46416;DHT22;32620;51.704;7.822;2024-03-23T01:00:33;6.80;99.90
46416;DHT22;32620;51.704;7.822;2024-03-23T01:02:59;6.80;99.90
46416;DHT22;32620;51.704;7.822;2024-03-23T01:05:24;6.80;99.90
46416;DHT22;32620;51.704;7.822;2024-03-23T01:07:50;6.80;99.90
46416;DHT22;32620;51.704;7.822;2024-03-23T01:10:16;6.80;99.90
46416;DHT22;32620;51.704;7.822;2024-03-23T01:12:41;6.80;99.90
46416;DHT22;32620;51.704;7.822;2024-03-23T01:15:07;6.70;99.90
46416;DHT22;32620;51.704;7.822;2024-03-23T01:17:32;6.70;99.90
46416;DHT22;32620;51.704;7.822;2024-03-23T01:19:58;6.70;99.90
46416;DHT22;32620;51.704;7.822;2024-03-23T01:22:23;6.70;99.90
46416;DHT22;32620;51.704;7.822;2024-03-23T01:24:49;6.60;99.90
46416;DHT22;32620;51.704;7.822;2024-03-23T01:27:15;6.60;99.90
46416;DHT22;32620;51.704;7.822;2024-03-23T01:29:40;6.60;99.90
46416;DHT22;32620;51.704;7.822;2024-03-23T01:32:06;6.60;99.90
46416;DHT22;32620;51.704;7.822;2024-03-23T01:34:32;6.60;99.90
46416;DHT22;32620;51.704;7.822;2024-03-23T01:36:58;6.60;99.90
46416;DHT22;32620;51.704;7.822;2024-03-23T01:39:24;6.50;99.90
46416;DHT22;32620;51.704;7.822;2024-03-23T01:41:49;6.60;99.90
46416;DHT22;32620;51.704;7.822;2024-03-23T01:44:15;6.60;99.90
46416;DHT22;32620;51.704;7.822;2024-03-23T01:46:41;6.60;99.90
46416;DHT22;32620;51.704;7.822;2024-03-23T01:49:08;6.80;99.90
46416;DHT22;32620;51.704;7.822;2024-03-23T01:51:34;6.70;99.90
46416;DHT22;32620;51.704;7.822;2024-03-23T01:54:01;6.60;99.90
46416;DHT22;32620;51.704;7.822;2024-03-23T01:56:31;6.60;99.90
46416;DHT22;32620;51.704;7.822;2024-03-23T01:58:59;6.60;99.90
46416;DHT22;32620;51.704;7.822;2024-03-23T02:01:24;6.60;99.90
46416;DHT22;32620;51.704;7.822;2024-03-23T02:03:50;6.50;99.90
46416;DHT22;32620;51.704;7.822;2024-03-23T02:06:16;6.50;99.90
46416;DHT22;32620;51.704;7.822;2024-03-23T02:08:41;6.50;99.90
46416;DHT22;32620;51.704;7.822;2024-03-23T02:11:07;6.50;99.90
46416;DHT22;32620;51.704;7.822;2024-03-23T02:13:33;6.50;99.90
46416;DHT22;32620;51.704;7.822;2024-03-23T02:15:58;6.40;99.90
46416;DHT22;32620;51.704;7.822;2024-03-23T02:18:24;6.40;99.90
46416;DHT22;32620;51.704;7.822;2024-03-23T02:20:49;6.40;99.90
46416;DHT22;32620;51.704;7.822;2024-03-23T02:23:16;6.40;99.90
46416;DHT22;32620;51.704;7.822;2024-03-23T02:25:42;6.40;99.90
46416;DHT22;32620;51.704;7.822;2024-03-23T02:28:08;6.40;99.90
46416;DHT22;32620;51.704;7.822;2024-03-23T02:30:33;6.30;99.90
46416;DHT22;32620;51.704;7.822;2024-03-23T02:32:59;6.30;99.90
46416;DHT22;32620;51.704;7.822;2024-03-23T02:35:25;6.30;99.90
46416;DHT22;32620;51.704;7.822;2024-03-23T02:37:50;6.30;99.90
46416;DHT22;32620;51.704;7.822;2024-03-23T02:40:17;6.30;99.90
46416;DHT22;32620;51.704;7.822;2024-03-23T02:42:42;6.30;99.90
46416;DHT22;32620;51.704;7.822;2024-03-23T02:45:08;6.30;99.90
46416;DHT22;32620;51.704;7.822;2024-03-23T02:47:34;6.30;99.90
46416;DHT22;32620;51.704;7.822;2024-03-23T02:50:00;6.30;99.90
46416;DHT22;32620;51.704;7.822;2024-03-23T02:52:25;6.30;99.90
46416;DHT22;32620;51.704;7.822;2024-03-23T02:54:51;6.30;99.90
46416;DHT22;32620;51.704;7.822;2024-03-23T02:57:17;6.30;99.90
46416;DHT22;32620;51.704;7.822;2024-03-23T02:59:42;6.30;99.90
46416;DHT22;32620;51.704;7.822;2024-03-23T03:02:08;6.20;99.90
46416;DHT22;32620;51.704;7.822;2024-03-23T03:04:33;6.20;99.90
46416;DHT22;32620;51.704;7.822;2024-03-23T03:06:59;6.20;99.90
46416;DHT22;32620;51.704;7.822;2024-03-23T03:09:25;6.20;99.90
46416;DHT22;32620;51.704;7.822;2024-03-23T03:11:50;6.30;99.90
46416;DHT22;32620;51.704;7.822;2024-03-23T03:14:16;6.30;99.90
46416;DHT22;32620;51.704;7.822;2024-03-23T03:16:41;6.30;99.90
46416;DHT22;32620;51.704;7.822;2024-03-23T03:19:07;6.30;99.90
46416;DHT22;32620;51.704;7.822;2024-03-23T03:21:32;6.30;99.90
46416;DHT22;32620;51.704;7.822;2024-03-23T03:23:58;6.30;99.90
46416;DHT22;32620;51.704;7.822;2024-03-23T03:26:24;6.20;99.90
46416;DHT22;32620;51.704;7.822;2024-03-23T03:28:50;6.20;99.90
46416;DHT22;32620;51.704;7.822;2024-03-23T03:31:16;6.10;99.90
46416;DHT22;32620;51.704;7.822;2024-03-23T03:33:42;6.10;99.90
46416;DHT22;32620;51.704;7.822;2024-03-23T03:36:08;6.00;99.90
46416;DHT22;32620;51.704;7.822;2024-03-23T03:38:33;5.90;99.90
46416;DHT22;32620;51.704;7.822;2024-03-23T03:41:01;5.90;99.90
46416;DHT22;32620;51.704;7.822;2024-03-23T03:43:27;5.90;99.90
46416;DHT22;32620;51.704;7.822;2024-03-23T03:45:53;5.90;99.90
46416;DHT22;32620;51.704;7.822;2024-03-23T03:48:19;6.00;99.90
46416;DHT22;32620;51.704;7.822;2024-03-23T03:50:44;5.90;99.90
46416;DHT22;32620;51.704;7.822;2024-03-23T03:53:10;5.90;99.90
46416;DHT22;32620;51.704;7.822;2024-03-23T03:55:35;6.00;99.90
46416;DHT22;32620;51.704;7.822;2024-03-23T03:58:01;6.00;99.90
46416;DHT22;32620;51.704;7.822;2024-03-23T04:00:26;6.00;99.90
46416;DHT22;32620;51.704;7.822;2024-03-23T04:02:52;5.80;99.90
46416;DHT22;32620;51.704;7.822;2024-03-23T04:05:17;5.90;99.90
46416;DHT22;32620;51.704;7.822;2024-03-23T04:07:44;5.90;99.90
46416;DHT22;32620;51.704;7.822;2024-03-23T04:10:10;5.80;99.90
46416;DHT22;32620;51.704;7.822;2024-03-23T04:12:35;5.80;99.90
46416;DHT22;32620;51.704;7.822;2024-03-23T04:15:01;5.80;99.90
46416;DHT22;32620;51.704;7.822;2024-03-23T04:17:29;5.80;99.90
46416;DHT22;32620;51.704;7.822;2024-03-23T04:19:58;5.90;99.90
46416;DHT22;32620;51.704;7.822;2024-03-23T04:22:24;5.90;99.90
46416;DHT22;32620;51.704;7.822;2024-03-23T04:24:53;5.90;99.90
46416;DHT22;32620;51.704;7.822;2024-03-23T04:27:19;5.90;99.90
46416;DHT22;32620;51.704;7.822;2024-03-23T04:29:52;5.90;99.90
46416;DHT22;32620;51.704;7.822;2024-03-23T04:32:19;5.90;99.90
46416;DHT22;32620;51.704;7.822;2024-03-23T04:34:44;5.80;99.90
46416;DHT22;32620;51.704;7.822;2024-03-23T04:37:11;5.80;99.90
46416;DHT22;32620;51.704;7.822;2024-03-23T04:39:36;5.80;99.90
46416;DHT22;32620;51.704;7.822;2024-03-23T04:42:03;5.80;99.90
46416;DHT22;32620;51.704;7.822;2024-03-23T04:44:29;5.90;99.90
46416;DHT22;32620;51.704;7.822;2024-03-23T04:46:54;5.90;99.90
46416;DHT22;32620;51.704;7.822;2024-03-23T04:49:20;5.90;99.90
46416;DHT22;32620;51.704;7.822;2024-03-23T04:51:46;5.90;99.90
46416;DHT22;32620;51.704;7.822;2024-03-23T04:54:12;5.90;99.90
46416;DHT22;32620;51.704;7.822;2024-03-23T04:56:38;5.90;99.90
46416;DHT22;32620;51.704;7.822;2024-03-23T04:59:03;5.90;99.90
46416;DHT22;32620;51.704;7.822;2024-03-23T05:01:31;6.00;99.90
46416;DHT22;32620;51.704;7.822;2024-03-23T05:03:57;6.00;99.90
46416;DHT22;32620;51.704;7.822;2024-03-23T05:06:23;6.00;99.90
46416;DHT22;32620;51.704;7.822;2024-03-23T05:08:48;6.00;99.90
46416;DHT22;32620;51.704;7.822;2024-03-23T05:11:15;6.00;99.90
46416;DHT22;32620;51.704;7.822;2024-03-23T05:13:42;5.90;99.90
46416;DHT22;32620;51.704;7.822;2024-03-23T05:16:08;5.90;99.90
46416;DHT22;32620;51.704;7.822;2024-03-23T05:18:34;6.00;99.90
46416;DHT22;32620;51.704;7.822;2024-03-23T05:21:00;6.00;99.90
46416;DHT22;32620;51.704;7.822;2024-03-23T05:23:26;5.90;99.90
46416;DHT22;32620;51.704;7.822;2024-03-23T05:25:53;5.90;99.90
46416;DHT22;32620;51.704;7.822;2024-03-23T05:28:18;5.90;99.90
46416;DHT22;32620;51.704;7.822;2024-03-23T05:30:49;6.00;99.90
46416;DHT22;32620;51.704;7.822;2024-03-23T05:33:15;5.90;99.90
46416;DHT22;32620;51.704;7.822;2024-03-23T05:35:40;5.90;99.90
46416;DHT22;32620;51.704;7.822;2024-03-23T05:38:06;6.00;99.90
46416;DHT22;32620;51.704;7.822;2024-03-23T05:40:31;5.90;99.90
46416;DHT22;32620;51.704;7.822;2024-03-23T05:42:57;6.00;99.90
46416;DHT22;32620;51.704;7.822;2024-03-23T05:45:23;6.00;99.90
46416;DHT22;32620;51.704;7.822;2024-03-23T05:47:48;5.90;99.90
46416;DHT22;32620;51.704;7.822;2024-03-23T05:50:14;5.90;99.90
46416;DHT22;32620;51.704;7.822;2024-03-23T05:52:40;5.90;99.90
46416;DHT22;32620;51.704;7.822;2024-03-23T05:55:06;5.90;99.90
46416;DHT22;32620;51.704;7.822;2024-03-23T05:57:32;5.90;99.90
46416;DHT22;32620;51.704;7.822;2024-03-23T05:59:57;5.90;99.90
46416;DHT22;32620;51.704;7.822;2024-03-23T06:02:24;5.90;99.90
46416;DHT22;32620;51.704;7.822;2024-03-23T06:04:49;5.90;99.90
46416;DHT22;32620;51.704;7.822;2024-03-23T06:07:15;6.00;99.90
46416;DHT22;32620;51.704;7.822;2024-03-23T06:09:41;6.00;99.90
46416;DHT22;32620;51.704;7.822;2024-03-23T06:12:07;6.00;99.90
46416;DHT22;32620;51.704;7.822;2024-03-23T06:14:33;5.90;99.90
46416;DHT22;32620;51.704;7.822;2024-03-23T06:16:59;6.00;99.90
46416;DHT22;32620;51.704;7.822;2024-03-23T06:19:25;6.00;99.90
46416;DHT22;32620;51.704;7.822;2024-03-23T06:21:54;6.00;99.90
46416;DHT22;32620;51.704;7.822;2024-03-23T06:24:22;6.00;99.90
46416;DHT22;32620;51.704;7.822;2024-03-23T06:26:47;6.10;99.90
46416;DHT22;32620;51.704;7.822;2024-03-23T06:29:13;6.10;99.90
46416;DHT22;32620;51.704;7.822;2024-03-23T06:31:39;6.10;99.90
46416;DHT22;32620;51.704;7.822;2024-03-23T06:34:04;6.20;99.90
46416;DHT22;32620;51.704;7.822;2024-03-23T06:36:30;6.20;99.90
46416;DHT22;32620;51.704;7.822;2024-03-23T06:38:56;6.20;99.90
46416;DHT22;32620;51.704;7.822;2024-03-23T06:41:22;6.20;99.90
46416;DHT22;32620;51.704;7.822;2024-03-23T06:43:48;6.30;99.90
46416;DHT22;32620;51.704;7.822;2024-03-23T06:46:13;6.30;99.90
46416;DHT22;32620;51.704;7.822;2024-03-23T06:48:39;6.30;99.90
46416;DHT22;32620;51.704;7.822;2024-03-23T06:51:04;6.30;99.90
46416;DHT22;32620;51.704;7.822;2024-03-23T06:53:31;6.30;99.90
46416;DHT22;32620;51.704;7.822;2024-03-23T06:55:57;6.30;99.90
46416;DHT22;32620;51.704;7.822;2024-03-23T06:58:24;6.30;99.90
46416;DHT22;32620;51.704;7.822;2024-03-23T07:00:50;6.40;99.90
46416;DHT22;32620;51.704;7.822;2024-03-23T07:03:16;6.30;99.90
46416;DHT22;32620;51.704;7.822;2024-03-23T07:05:42;6.40;99.90
46416;DHT22;32620;51.704;7.822;2024-03-23T07:08:08;6.40;99.90
46416;DHT22;32620;51.704;7.822;2024-03-23T07:10:34;6.40;99.90
46416;DHT22;32620;51.704;7.822;2024-03-23T07:13:01;6.50;99.90
46416;DHT22;32620;51.704;7.822;2024-03-23T07:15:26;6.80;99.90
46416;DHT22;32620;51.704;7.822;2024-03-23T07:17:52;7.00;99.90
46416;DHT22;32620;51.704;7.822;2024-03-23T07:20:17;7.20;99.90
46416;DHT22;32620;51.704;7.822;2024-03-23T07:22:45;7.50;99.90
46416;DHT22;32620;51.704;7.822;2024-03-23T07:25:11;7.50;99.90
46416;DHT22;32620;51.704;7.822;2024-03-23T07:27:37;7.50;99.90
46416;DHT22;32620;51.704;7.822;2024-03-23T07:30:02;7.80;99.90
46416;DHT22;32620;51.704;7.822;2024-03-23T07:32:28;8.20;99.90
46416;DHT22;32620;51.704;7.822;2024-03-23T07:34:56;8.30;99.90
46416;DHT22;32620;51.704;7.822;2024-03-23T07:37:22;8.20;99.90
46416;DHT22;32620;51.704;7.822;2024-03-23T07:39:47;7.70;99.90
46416;DHT22;32620;51.704;7.822;2024-03-23T07:42:13;8.00;99.90
46416;DHT22;32620;51.704;7.822;2024-03-23T07:44:38;8.10;99.90
46416;DHT22;32620;51.704;7.822;2024-03-23T07:47:04;8.60;99.90
46416;DHT22;32620;51.704;7.822;2024-03-23T07:49:29;8.90;90.60
46416;DHT22;32620;51.704;7.822;2024-03-23T07:51:55;9.00;90.20
46416;DHT22;32620;51.704;7.822;2024-03-23T07:54:20;10.40;59.30
46416;DHT22;32620;51.704;7.822;2024-03-23T07:56:46;10.80;1.00
46416;DHT22;32620;51.704;7.822;2024-03-23T07:59:12;10.80;1.00
46416;DHT22;32620;51.704;7.822;2024-03-23T08:01:37;10.30;1.00
46416;DHT22;32620;51.704;7.822;2024-03-23T08:04:03;11.00;1.00
46416;DHT22;32620;51.704;7.822;2024-03-23T08:06:29;11.10;1.00
46416;DHT22;32620;51.704;7.822;2024-03-23T08:08:55;11.70;1.00
46416;DHT22;32620;51.704;7.822;2024-03-23T08:11:30;11.70;99.90
46416;DHT22;32620;51.704;7.822;2024-03-23T08:13:56;11.40;1.00
46416;DHT22;32620;51.704;7.822;2024-03-23T08:16:22;11.10;1.00
46416;DHT22;32620;51.704;7.822;2024-03-23T08:18:47;11.60;1.00
46416;DHT22;32620;51.704;7.822;2024-03-23T08:21:13;11.80;1.00
46416;DHT22;32620;51.704;7.822;2024-03-23T08:23:39;12.30;99.90
46416;DHT22;32620;51.704;7.822;2024-03-23T08:26:07;12.30;99.90
46416;DHT22;32620;51.704;7.822;2024-03-23T08:28:33;12.00;99.90
46416;DHT22;32620;51.704;7.822;2024-03-23T08:31:02;11.80;99.90
46416;DHT22;32620;51.704;7.822;2024-03-23T08:33:28;11.60;99.90
46416;DHT22;32620;51.704;7.822;2024-03-23T08:35:55;10.70;1.00
46416;DHT22;32620;51.704;7.822;2024-03-23T08:38:23;9.70;1.00
46416;DHT22;32620;51.704;7.822;2024-03-23T08:40:56;9.20;1.00
46416;DHT22;32620;51.704;7.822;2024-03-23T08:43:22;9.20;1.00
46416;DHT22;32620;51.704;7.822;2024-03-23T08:45:48;9.10;1.00
46416;DHT22;32620;51.704;7.822;2024-03-23T08:48:13;9.90;1.00
46416;DHT22;32620;51.704;7.822;2024-03-23T08:50:39;10.20;1.00
46416;DHT22;32620;51.704;7.822;2024-03-23T08:53:04;9.60;1.00
46416;DHT22;32620;51.704;7.822;2024-03-23T08:55:30;9.90;1.00
46416;DHT22;32620;51.704;7.822;2024-03-23T08:57:55;9.90;1.00
46416;DHT22;32620;51.704;7.822;2024-03-23T09:00:21;10.50;1.00
46416;DHT22;32620;51.704;7.822;2024-03-23T09:02:48;10.10;1.00
46416;DHT22;32620;51.704;7.822;2024-03-23T09:05:13;9.60;1.00
46416;DHT22;32620;51.704;7.822;2024-03-23T09:07:39;9.00;1.00
46416;DHT22;32620;51.704;7.822;2024-03-23T09:10:05;9.00;1.00
46416;DHT22;32620;51.704;7.822;2024-03-23T09:12:30;8.70;1.00
46416;DHT22;32620;51.704;7.822;2024-03-23T09:14:56;8.60;1.00
46416;DHT22;32620;51.704;7.822;2024-03-23T09:17:21;8.80;1.00
46416;DHT22;32620;51.704;7.822;2024-03-23T09:19:47;9.10;1.00
46416;DHT22;32620;51.704;7.822;2024-03-23T09:22:12;9.00;1.00
46416;DHT22;32620;51.704;7.822;2024-03-23T09:24:39;8.60;1.00
46416;DHT22;32620;51.704;7.822;2024-03-23T09:27:04;9.70;1.00
46416;DHT22;32620;51.704;7.822;2024-03-23T09:29:30;10.80;99.90
46416;DHT22;32620;51.704;7.822;2024-03-23T09:34:21;11.20;1.00
46416;DHT22;32620;51.704;7.822;2024-03-23T09:36:50;11.00;99.90
46416;DHT22;32620;51.704;7.822;2024-03-23T09:39:17;10.80;1.00
46416;DHT22;32620;51.704;7.822;2024-03-23T09:41:42;10.30;1.00
46416;DHT22;32620;51.704;7.822;2024-03-23T09:44:09;10.30;99.90
46416;DHT22;32620;51.704;7.822;2024-03-23T09:46:34;9.90;99.90
46416;DHT22;32620;51.704;7.822;2024-03-23T09:49:02;9.60;99.90
46416;DHT22;32620;51.704;7.822;2024-03-23T09:51:30;9.50;1.00
46416;DHT22;32620;51.704;7.822;2024-03-23T09:53:56;9.30;1.00
46416;DHT22;32620;51.704;7.822;2024-03-23T09:56:22;8.80;1.00
46416;DHT22;32620;51.704;7.822;2024-03-23T09:58:48;8.50;1.00
46416;DHT22;32620;51.704;7.822;2024-03-23T10:01:14;8.10;1.00
46416;DHT22;32620;51.704;7.822;2024-03-23T10:03:44;8.00;1.00
46416;DHT22;32620;51.704;7.822;2024-03-23T10:06:10;8.10;1.00
46416;DHT22;32620;51.704;7.822;2024-03-23T10:08:35;8.50;1.00
46416;DHT22;32620;51.704;7.822;2024-03-23T10:11:16;8.70;1.00
46416;DHT22;32620;51.704;7.822;2024-03-23T10:13:43;8.70;1.00
46416;DHT22;32620;51.704;7.822;2024-03-23T10:16:09;8.70;1.00
46416;DHT22;32620;51.704;7.822;2024-03-23T10:18:39;8.60;1.00
46416;DHT22;32620;51.704;7.822;2024-03-23T10:23:44;8.40;1.00
46416;DHT22;32620;51.704;7.822;2024-03-23T10:26:16;7.20;1.00
46416;DHT22;32620;51.704;7.822;2024-03-23T10:31:29;7.20;11.70
46416;DHT22;32620;51.704;7.822;2024-03-23T10:33:55;7.60;22.60
46416;DHT22;32620;51.704;7.822;2024-03-23T10:36:22;7.70;1.00
46416;DHT22;32620;51.704;7.822;2024-03-23T10:38:50;7.90;1.00
46416;DHT22;32620;51.704;7.822;2024-03-23T10:41:16;7.90;1.00
46416;DHT22;32620;51.704;7.822;2024-03-23T10:43:43;8.10;1.00
46416;DHT22;32620;51.704;7.822;2024-03-23T10:46:10;9.00;1.00
46416;DHT22;32620;51.704;7.822;2024-03-23T10:48:35;10.00;99.90
46416;DHT22;32620;51.704;7.822;2024-03-23T10:51:01;10.90;99.90
46416;DHT22;32620;51.704;7.822;2024-03-23T10:53:28;11.60;1.00
46416;DHT22;32620;51.704;7.822;2024-03-23T10:55:55;11.90;1.00
46416;DHT22;32620;51.704;7.822;2024-03-23T10:58:39;11.60;1.00
46416;DHT22;32620;51.704;7.822;2024-03-23T11:01:05;11.60;1.00
46416;DHT22;32620;51.704;7.822;2024-03-23T11:03:33;12.00;99.90
46416;DHT22;32620;51.704;7.822;2024-03-23T11:06:00;12.80;99.90
46416;DHT22;32620;51.704;7.822;2024-03-23T11:08:35;12.60;99.90
46416;DHT22;32620;51.704;7.822;2024-03-23T11:11:21;11.90;1.00
46416;DHT22;32620;51.704;7.822;2024-03-23T11:13:49;10.70;1.00
46416;DHT22;32620;51.704;7.822;2024-03-23T11:16:21;10.30;99.90
46416;DHT22;32620;51.704;7.822;2024-03-23T11:18:48;10.50;54.30
46416;DHT22;32620;51.704;7.822;2024-03-23T11:22:05;10.60;99.90
46416;DHT22;32620;51.704;7.822;2024-03-23T11:24:20;10.70;99.90
46416;DHT22;32620;51.704;7.822;2024-03-23T11:26:46;11.00;1.00
46416;DHT22;32620;51.704;7.822;2024-03-23T11:29:13;10.70;99.90
46416;DHT22;32620;51.704;7.822;2024-03-23T11:31:46;10.80;99.90
46416;DHT22;32620;51.704;7.822;2024-03-23T11:34:12;10.40;99.90
46416;DHT22;32620;51.704;7.822;2024-03-23T11:36:38;10.20;1.00
46416;DHT22;32620;51.704;7.822;2024-03-23T11:39:19;9.90;1.00
46416;DHT22;32620;51.704;7.822;2024-03-23T11:41:50;10.50;99.90
46416;DHT22;32620;51.704;7.822;2024-03-23T11:44:24;10.60;99.90
46416;DHT22;32620;51.704;7.822;2024-03-23T11:46:51;10.40;99.90
46416;DHT22;32620;51.704;7.822;2024-03-23T11:49:26;10.00;99.90
46416;DHT22;32620;51.704;7.822;2024-03-23T11:51:53;9.90;1.00
46416;DHT22;32620;51.704;7.822;2024-03-23T11:54:22;9.30;99.90
46416;DHT22;32620;51.704;7.822;2024-03-23T11:57:03;8.90;1.00
46416;DHT22;32620;51.704;7.822;2024-03-23T11:59:38;8.50;1.00
46416;DHT22;32620;51.704;7.822;2024-03-23T12:02:07;8.30;1.00
46416;DHT22;32620;51.704;7.822;2024-03-23T12:04:33;8.10;40.70
46416;DHT22;32620;51.704;7.822;2024-03-23T12:07:18;8.00;1.00
46416;DHT22;32620;51.704;7.822;2024-03-23T12:09:45;7.80;99.90
46416;DHT22;32620;51.704;7.822;2024-03-23T12:12:18;7.70;1.00
46416;DHT22;32620;51.704;7.822;2024-03-23T12:14:45;8.20;99.90
46416;DHT22;32620;51.704;7.822;2024-03-23T12:17:13;8.80;1.00
46416;DHT22;32620;51.704;7.822;2024-03-23T12:19:39;9.10;1.00
46416;DHT22;32620;51.704;7.822;2024-03-23T12:22:06;9.20;15.60
46416;DHT22;32620;51.704;7.822;2024-03-23T12:24:32;9.30;99.90
46416;DHT22;32620;51.704;7.822;2024-03-23T12:27:00;9.30;99.90
46416;DHT22;32620;51.704;7.822;2024-03-23T12:29:29;9.50;36.70
46416;DHT22;32620;51.704;7.822;2024-03-23T12:31:54;9.80;99.90
46416;DHT22;32620;51.704;7.822;2024-03-23T12:34:21;9.70;99.90
46416;DHT22;32620;51.704;7.822;2024-03-23T12:36:46;9.50;1.00
46416;DHT22;32620;51.704;7.822;2024-03-23T12:39:12;9.50;1.00
46416;DHT22;32620;51.704;7.822;2024-03-23T12:41:37;9.90;99.90
46416;DHT22;32620;51.704;7.822;2024-03-23T12:44:03;10.00;99.90
46416;DHT22;32620;51.704;7.822;2024-03-23T12:46:28;10.10;99.90
46416;DHT22;32620;51.704;7.822;2024-03-23T12:48:54;10.00;1.00
46416;DHT22;32620;51.704;7.822;2024-03-23T12:51:19;9.50;99.90
46416;DHT22;32620;51.704;7.822;2024-03-23T12:53:45;9.50;1.00
46416;DHT22;32620;51.704;7.822;2024-03-23T12:56:12;9.40;99.90
46416;DHT22;32620;51.704;7.822;2024-03-23T12:58:37;9.40;18.90
46416;DHT22;32620;51.704;7.822;2024-03-23T13:01:03;9.80;99.90
46416;DHT22;32620;51.704;7.822;2024-03-23T13:03:29;10.40;1.00
46416;DHT22;32620;51.704;7.822;2024-03-23T13:08:20;10.40;99.90
46416;DHT22;32620;51.704;7.822;2024-03-23T13:10:46;10.00;99.90
46416;DHT22;32620;51.704;7.822;2024-03-23T13:13:12;10.00;99.90
46416;DHT22;32620;51.704;7.822;2024-03-23T13:15:38;9.80;1.00
46416;DHT22;32620;51.704;7.822;2024-03-23T13:18:03;9.60;1.00
46416;DHT22;32620;51.704;7.822;2024-03-23T13:20:29;9.40;1.00
46416;DHT22;32620;51.704;7.822;2024-03-23T13:22:54;8.90;99.90
46416;DHT22;32620;51.704;7.822;2024-03-23T13:25:20;8.30;99.90
46416;DHT22;32620;51.704;7.822;2024-03-23T13:27:45;8.10;99.90
46416;DHT22;32620;51.704;7.822;2024-03-23T13:30:11;8.00;99.90
46416;DHT22;32620;51.704;7.822;2024-03-23T13:32:37;7.90;99.90
46416;DHT22;32620;51.704;7.822;2024-03-23T13:35:03;8.00;1.00
46416;DHT22;32620;51.704;7.822;2024-03-23T13:37:29;8.30;99.90
46416;DHT22;32620;51.704;7.822;2024-03-23T13:39:54;8.80;99.90
46416;DHT22;32620;51.704;7.822;2024-03-23T13:42:20;9.30;99.90
46416;DHT22;32620;51.704;7.822;2024-03-23T13:44:45;9.50;99.90
46416;DHT22;32620;51.704;7.822;2024-03-23T13:47:11;9.60;1.00
46416;DHT22;32620;51.704;7.822;2024-03-23T13:49:36;9.80;28.40
46416;DHT22;32620;51.704;7.822;2024-03-23T13:52:02;9.70;98.30
46416;DHT22;32620;51.704;7.822;2024-03-23T13:54:28;9.60;1.00
46416;DHT22;32620;51.704;7.822;2024-03-23T13:56:55;9.30;1.00
46416;DHT22;32620;51.704;7.822;2024-03-23T13:59:21;9.20;99.90
46416;DHT22;32620;51.704;7.822;2024-03-23T14:01:48;9.20;1.00
46416;DHT22;32620;51.704;7.822;2024-03-23T14:04:14;9.00;99.90
46416;DHT22;32620;51.704;7.822;2024-03-23T14:06:42;8.60;1.00
46416;DHT22;32620;51.704;7.822;2024-03-23T14:09:08;8.40;13.10
46416;DHT22;32620;51.704;7.822;2024-03-23T14:11:35;8.40;1.00
46416;DHT22;32620;51.704;7.822;2024-03-23T14:14:02;8.80;99.90
46416;DHT22;32620;51.704;7.822;2024-03-23T14:16:30;9.20;99.90
46416;DHT22;32620;51.704;7.822;2024-03-23T14:18:56;9.20;99.90
46416;DHT22;32620;51.704;7.822;2024-03-23T14:21:21;9.30;99.90
46416;DHT22;32620;51.704;7.822;2024-03-23T14:23:47;9.10;99.90
46416;DHT22;32620;51.704;7.822;2024-03-23T14:26:12;9.30;1.00
46416;DHT22;32620;51.704;7.822;2024-03-23T14:28:38;9.30;99.90
46416;DHT22;32620;51.704;7.822;2024-03-23T14:31:03;9.30;1.00
46416;DHT22;32620;51.704;7.822;2024-03-23T14:33:36;9.30;1.00
46416;DHT22;32620;51.704;7.822;2024-03-23T14:36:03;9.20;91.00
46416;DHT22;32620;51.704;7.822;2024-03-23T14:38:29;9.40;1.00
46416;DHT22;32620;51.704;7.822;2024-03-23T14:40:58;9.30;76.10
46416;DHT22;32620;51.704;7.822;2024-03-23T14:43:24;9.10;99.90
46416;DHT22;32620;51.704;7.822;2024-03-23T14:46:10;8.80;99.90
46416;DHT22;32620;51.704;7.822;2024-03-23T14:48:37;8.40;99.90
46416;DHT22;32620;51.704;7.822;2024-03-23T14:51:03;8.20;99.90
46416;DHT22;32620;51.704;7.822;2024-03-23T14:53:34;8.40;1.00
46416;DHT22;32620;51.704;7.822;2024-03-23T14:56:01;8.80;99.90
46416;DHT22;32620;51.704;7.822;2024-03-23T14:58:27;9.10;76.00
46416;DHT22;32620;51.704;7.822;2024-03-23T15:00:53;9.30;99.90
46416;DHT22;32620;51.704;7.822;2024-03-23T15:03:24;9.50;1.00
46416;DHT22;32620;51.704;7.822;2024-03-23T15:05:56;9.60;1.00
46416;DHT22;32620;51.704;7.822;2024-03-23T15:08:22;9.40;40.10
46416;DHT22;32620;51.704;7.822;2024-03-23T15:10:47;9.40;99.90
46416;DHT22;32620;51.704;7.822;2024-03-23T15:13:13;9.30;99.90
46416;DHT22;32620;51.704;7.822;2024-03-23T15:15:40;9.30;99.90
46416;DHT22;32620;51.704;7.822;2024-03-23T15:18:09;9.30;99.90
46416;DHT22;32620;51.704;7.822;2024-03-23T15:20:35;9.40;99.90
46416;DHT22;32620;51.704;7.822;2024-03-23T15:23:02;9.40;99.90
46416;DHT22;32620;51.704;7.822;2024-03-23T15:25:28;9.10;44.30
46416;DHT22;32620;51.704;7.822;2024-03-23T15:27:53;8.80;1.00
46416;DHT22;32620;51.704;7.822;2024-03-23T15:30:20;8.90;99.90
46416;DHT22;32620;51.704;7.822;2024-03-23T15:32:46;9.00;1.00
46416;DHT22;32620;51.704;7.822;2024-03-23T15:35:12;9.10;1.00
46416;DHT22;32620;51.704;7.822;2024-03-23T15:37:38;9.10;99.90
46416;DHT22;32620;51.704;7.822;2024-03-23T15:40:05;8.90;29.50
46416;DHT22;32620;51.704;7.822;2024-03-23T15:42:31;8.80;1.00
46416;DHT22;32620;51.704;7.822;2024-03-23T15:44:57;9.10;1.00
46416;DHT22;32620;51.704;7.822;2024-03-23T15:47:22;9.20;1.00
46416;DHT22;32620;51.704;7.822;2024-03-23T15:49:49;9.30;99.90
46416;DHT22;32620;51.704;7.822;2024-03-23T15:52:15;9.30;99.90
46416;DHT22;32620;51.704;7.822;2024-03-23T15:54:43;9.20;99.90
46416;DHT22;32620;51.704;7.822;2024-03-23T15:57:21;9.10;99.90
46416;DHT22;32620;51.704;7.822;2024-03-23T15:59:47;9.10;99.90
46416;DHT22;32620;51.704;7.822;2024-03-23T16:02:12;9.10;99.90
46416;DHT22;32620;51.704;7.822;2024-03-23T16:04:38;9.00;99.90
46416;DHT22;32620;51.704;7.822;2024-03-23T16:07:03;8.90;99.90
46416;DHT22;32620;51.704;7.822;2024-03-23T16:09:29;8.90;99.90
46416;DHT22;32620;51.704;7.822;2024-03-23T16:11:54;8.90;99.90
46416;DHT22;32620;51.704;7.822;2024-03-23T16:14:20;8.80;99.90
46416;DHT22;32620;51.704;7.822;2024-03-23T16:16:45;8.80;99.90
46416;DHT22;32620;51.704;7.822;2024-03-23T16:19:12;9.00;94.60
46416;DHT22;32620;51.704;7.822;2024-03-23T16:21:38;9.10;75.80
46416;DHT22;32620;51.704;7.822;2024-03-23T16:24:04;9.10;38.40
46416;DHT22;32620;51.704;7.822;2024-03-23T16:26:30;9.10;66.60
46416;DHT22;32620;51.704;7.822;2024-03-23T16:28:55;9.10;99.90
46416;DHT22;32620;51.704;7.822;2024-03-23T16:31:21;9.10;99.90
46416;DHT22;32620;51.704;7.822;2024-03-23T16:33:47;9.10;38.20
46416;DHT22;32620;51.704;7.822;2024-03-23T16:36:13;8.80;99.90
46416;DHT22;32620;51.704;7.822;2024-03-23T16:38:41;8.70;99.90
46416;DHT22;32620;51.704;7.822;2024-03-23T16:41:08;8.60;99.90
46416;DHT22;32620;51.704;7.822;2024-03-23T16:43:35;8.50;99.90
46416;DHT22;32620;51.704;7.822;2024-03-23T16:46:03;8.50;1.00
46416;DHT22;32620;51.704;7.822;2024-03-23T16:48:30;8.30;1.00